Time;durP1;ratioP1;P1;durP2;ratioP2;P2;SDS_P1;SDS_P2;PMS_P1;PMS_P2;Temp;Humidity;BMP_temperature;BMP_pressure;BME280_temperature;BME280_humidity;BME280_pressure;Samples;Min_cycle;Max_cycle;Signal;HPM_P1;HPM_P2
2022/12/22 03:28:02;;;;;;;3.80;1.40;;;;;;;10.56;98.37;97965.25;4956856;28;20259;-59
2022/12/22 03:30:29;;;;;;;3.80;0.77;;;;;;;10.56;98.01;97979.13;4962927;28;20237;-59
2022/12/22 03:32:57;;;;;;;4.37;0.80;;;;;;;10.54;98.50;97973.25;4959780;28;20235;-58
2022/12/22 03:35:23;;;;;;;3.03;0.90;;;;;;;10.53;99.34;97958.56;4962251;28;20241;-58
2022/12/22 03:37:50;;;;;;;2.47;0.60;;;;;;;10.44;100.00;97949.97;4963065;28;20248;-59
2022/12/22 03:40:16;;;;;;;3.70;0.77;;;;;;;10.40;100.00;97945.22;4955677;28;20245;-58
2022/12/22 03:48:09;;;;;;;2.07;0.70;;;;;;;10.36;100.00;97946.50;4925425;28;20338;-59
2022/12/22 03:50:36;;;;;;;3.60;0.70;;;;;;;10.34;100.00;97928.44;4959265;28;20344;-59
2022/12/22 03:53:03;;;;;;;4.93;0.83;;;;;;;10.32;100.00;97925.16;4953849;28;20230;-58
2022/12/22 03:55:29;;;;;;;3.37;1.03;;;;;;;10.31;100.00;97923.53;4960948;28;20234;-58
2022/12/22 03:57:56;;;;;;;3.97;0.83;;;;;;;10.25;100.00;97945.88;4957457;28;20241;-59
2022/12/22 04:00:23;;;;;;;3.33;0.77;;;;;;;10.29;100.00;97956.81;4959342;28;20225;-59
2022/12/22 04:02:49;;;;;;;3.87;0.90;;;;;;;10.30;100.00;97932.34;4958611;28;20249;-59
2022/12/22 04:05:17;;;;;;;4.00;0.93;;;;;;;10.24;100.00;97948.66;4953861;28;20328;-56
2022/12/22 04:07:44;;;;;;;2.57;0.73;;;;;;;10.17;100.00;97949.31;4959014;28;20237;-57
2022/12/22 04:12:55;;;;;;;3.90;0.90;;;;;;;10.08;100.00;97952.91;4958300;28;20234;-57
2022/12/22 04:15:22;;;;;;;3.30;0.90;;;;;;;10.07;100.00;97951.28;4957767;28;20288;-58
2022/12/22 04:17:49;;;;;;;1.70;0.83;;;;;;;10.09;100.00;97958.91;4960282;28;20728;-58
2022/12/22 04:20:15;;;;;;;3.73;0.97;;;;;;;10.15;100.00;97973.91;4956552;28;20258;-57
2022/12/22 04:22:43;;;;;;;4.60;1.03;;;;;;;10.18;100.00;97963.16;4955848;28;20229;-57
2022/12/22 04:25:10;;;;;;;3.60;0.83;;;;;;;10.24;100.00;97957.28;4958322;28;20244;-58
2022/12/22 04:27:37;;;;;;;5.53;0.83;;;;;;;10.21;100.00;97975.06;4961026;28;20245;-57
2022/12/22 04:32:54;;;;;;;4.97;1.00;;;;;;;10.19;100.00;97947.34;5014553;23;20230;-58
2022/12/22 04:35:21;;;;;;;2.33;0.73;;;;;;;10.18;100.00;97958.75;4944833;28;20320;-58
2022/12/22 04:37:48;;;;;;;4.30;1.00;;;;;;;10.24;100.00;97959.88;4949283;28;20308;-58
2022/12/22 04:40:15;;;;;;;3.13;0.70;;;;;;;10.27;100.00;97958.75;4945090;28;20401;-57
2022/12/22 04:42:42;;;;;;;2.83;0.73;;;;;;;10.30;100.00;97951.41;4946789;28;20238;-57
2022/12/22 04:45:10;;;;;;;3.27;0.90;;;;;;;10.38;100.00;97976.69;4945688;28;20246;-58
2022/12/22 04:47:38;;;;;;;3.37;0.70;;;;;;;10.40;100.00;97950.44;4955058;28;20333;-58
2022/12/22 04:50:06;;;;;;;5.90;1.07;;;;;;;10.38;100.00;97962.81;4951959;28;20743;-59
2022/12/22 04:52:32;;;;;;;4.57;0.97;;;;;;;10.29;100.00;97960.22;4956522;28;20293;-57
2022/12/22 04:55:00;;;;;;;3.17;0.80;;;;;;;10.23;100.00;97963.47;4950151;28;20273;-57
2022/12/22 04:57:27;;;;;;;2.83;1.03;;;;;;;10.18;100.00;97944.91;4956545;28;20234;-57
2022/12/22 04:59:54;;;;;;;4.37;0.90;;;;;;;10.17;100.00;97946.72;4953342;28;20231;-58
2022/12/22 05:02:21;;;;;;;5.53;1.17;;;;;;;10.14;100.00;97943.59;4951715;28;20240;-57
2022/12/22 05:04:48;;;;;;;4.80;1.10;;;;;;;10.16;100.00;97941.63;4956319;28;20239;-58
2022/12/22 05:07:14;;;;;;;4.80;0.97;;;;;;;10.15;100.00;97933.00;4952632;28;20241;-59
2022/12/22 05:09:41;;;;;;;3.03;0.97;;;;;;;10.09;100.00;97949.31;4953814;28;20273;-58
2022/12/22 05:14:49;;;;;;;21.53;11.00;;;;;;;10.14;100.00;97930.56;4953730;28;20230;-58
2022/12/22 05:17:16;;;;;;;9.87;5.97;;;;;;;10.18;100.00;97924.03;4949796;28;20242;-57
2022/12/22 05:19:42;;;;;;;10.13;6.90;;;;;;;10.22;100.00;97927.16;4958043;28;20233;-57
2022/12/22 05:22:09;;;;;;;12.03;8.10;;;;;;;10.24;100.00;97925.19;4953685;28;20631;-58
2022/12/22 05:24:35;;;;;;;3.97;1.03;;;;;;;10.30;100.00;97935.75;4954319;28;20339;-58
2022/12/22 05:27:02;;;;;;;12.03;6.80;;;;;;;10.31;100.00;97933.97;4951070;28;20292;-58
2022/12/22 05:29:30;;;;;;;8.43;2.80;;;;;;;10.37;99.18;97943.75;4954307;28;20245;-59
2022/12/22 05:31:56;;;;;;;11.37;1.73;;;;;;;10.44;98.23;97931.69;4949258;28;20238;-57
2022/12/22 05:34:23;;;;;;;8.73;1.67;;;;;;;10.45;97.74;97925.50;4955471;28;20234;-58
2022/12/22 05:36:49;;;;;;;7.00;1.80;;;;;;;10.48;97.66;97938.22;4953754;28;20298;-58
2022/12/22 05:39:16;;;;;;;5.07;1.13;;;;;;;10.54;95.64;97941.94;4954211;28;20288;-57
2022/12/22 05:41:42;;;;;;;9.30;1.80;;;;;;;10.55;94.83;97922.69;4955919;28;20226;-58
2022/12/22 05:44:09;;;;;;;9.00;1.40;;;;;;;10.61;93.67;97939.44;4953589;28;20233;-58
2022/12/22 05:46:37;;;;;;;7.83;1.40;;;;;;;10.63;93.32;97920.03;4953291;28;20293;-57
2022/12/22 05:49:03;;;;;;;12.27;1.33;;;;;;;10.61;93.53;97918.56;4953495;28;20705;-58
2022/12/22 05:51:30;;;;;;;7.67;1.43;;;;;;;10.70;91.16;97916.75;4952422;28;20991;-58
2022/12/22 05:53:56;;;;;;;5.73;1.20;;;;;;;10.73;90.00;97885.91;4952156;28;20235;-58
2022/12/22 05:56:23;;;;;;;7.57;1.40;;;;;;;10.74;88.58;97882.31;4956732;28;20238;-57
2022/12/22 05:58:50;;;;;;;7.57;1.40;;;;;;;10.83;87.76;97887.50;4953455;28;20293;-58
2022/12/22 06:01:16;;;;;;;10.80;1.93;;;;;;;10.89;86.20;97908.53;4954312;28;20235;-59
2022/12/22 06:03:44;;;;;;;10.23;1.60;;;;;;;10.89;86.26;97905.91;4956964;28;20226;-58
2022/12/22 06:06:10;;;;;;;13.57;4.10;;;;;;;10.90;86.62;97911.94;4952932;28;20238;-58
2022/12/22 06:08:37;;;;;;;7.63;2.10;;;;;;;10.85;87.54;97911.63;4956353;28;20273;-59
2022/12/22 06:11:04;;;;;;;5.13;1.00;;;;;;;10.96;85.31;97913.06;4952896;28;20250;-58
2022/12/22 06:13:31;;;;;;;9.37;1.63;;;;;;;10.97;85.27;97917.31;4954915;28;20283;-58
2022/12/22 06:15:57;;;;;;;10.70;2.30;;;;;;;10.97;84.88;97930.38;4951751;28;20313;-57
2022/12/22 06:18:24;;;;;;;4.47;1.23;;;;;;;10.98;85.41;97932.00;4955810;28;20801;-57
2022/12/22 06:20:53;;;;;;;7.07;1.70;;;;;;;10.93;85.80;97935.09;4954384;28;20300;-57
2022/12/22 06:23:20;;;;;;;7.87;1.90;;;;;;;10.97;85.09;97946.03;4954659;28;20700;-58
2022/12/22 06:25:53;;;;;;;10.93;1.60;;;;;;;10.92;85.97;97943.91;4953296;28;20243;-58
2022/12/22 06:28:20;;;;;;;7.00;1.57;;;;;;;10.96;84.92;97933.97;4951712;28;20277;-57
2022/12/22 06:30:47;;;;;;;8.27;1.70;;;;;;;10.98;84.36;97961.50;4953541;28;20239;-57
2022/12/22 06:33:14;;;;;;;5.17;1.37;;;;;;;10.91;86.98;97966.63;4951136;28;20258;-57
2022/12/22 06:35:40;;;;;;;8.63;1.40;;;;;;;10.92;85.50;97968.25;4954216;28;20227;-58
2022/12/22 06:38:08;;;;;;;12.17;2.37;;;;;;;10.89;85.92;97962.53;4951657;28;20234;-58
2022/12/22 06:40:35;;;;;;;8.80;1.67;;;;;;;10.91;84.85;97961.41;4955552;28;20305;-57
2022/12/22 06:43:09;;;;;;;9.73;1.60;;;;;;;10.89;85.57;97965.97;4949943;28;20239;-58
2022/12/22 06:45:37;;;;;;;8.10;1.40;;;;;;;10.95;84.37;97956.63;4956197;28;20349;-57
2022/12/22 06:48:04;;;;;;;8.20;1.80;;;;;;;10.94;84.43;97952.41;4955407;28;20731;-57
2022/12/22 06:50:31;;;;;;;8.00;2.00;;;;;;;10.95;82.93;97967.06;4957701;28;20652;-58
2022/12/22 06:52:57;;;;;;;9.03;1.60;;;;;;;10.89;84.02;97973.81;4952189;28;20711;-58
2022/12/22 06:55:25;;;;;;;16.30;4.60;;;;;;;10.91;83.38;97966.63;4956561;28;20234;-57
2022/12/22 06:57:52;;;;;;;8.00;1.70;;;;;;;10.89;83.70;97952.09;4958631;28;20777;-58
2022/12/22 07:00:20;;;;;;;7.53;2.13;;;;;;;10.83;83.85;97961.44;4952343;28;20297;-57
2022/12/22 07:02:46;;;;;;;12.57;5.85;;;;;;;10.92;81.22;97967.41;4954590;28;20507;-58
2022/12/22 07:05:14;;;;;;;9.43;2.20;;;;;;;10.95;82.29;97984.56;4952390;28;20226;-57
2022/12/22 07:07:41;;;;;;;6.37;2.00;;;;;;;11.06;80.14;97982.38;4959272;28;20227;-57
2022/12/22 07:10:09;;;;;;;13.07;2.03;;;;;;;11.04;82.08;97973.91;4955816;28;20239;-58
2022/12/22 07:12:37;;;;;;;9.37;1.67;;;;;;;10.95;83.16;97967.06;4958629;28;20235;-58
2022/12/22 07:15:04;;;;;;;8.87;2.03;;;;;;;10.88;84.39;97993.06;4953655;28;20291;-58
2022/12/22 07:17:31;;;;;;;10.37;2.20;;;;;;;10.85;85.07;98031.72;4957453;28;20242;-57
2022/12/22 07:19:57;;;;;;;11.10;1.73;;;;;;;10.83;84.22;97997.97;4954922;28;20247;-59
2022/12/22 07:22:24;;;;;;;9.03;1.90;;;;;;;10.73;87.09;97992.94;4955458;28;20699;-57
2022/12/22 07:24:51;;;;;;;9.23;1.93;;;;;;;10.72;86.03;97980.06;4954074;28;20813;-58
2022/12/22 07:27:17;;;;;;;9.47;1.70;;;;;;;10.69;87.01;97988.22;4954188;28;20238;-56
2022/12/22 07:29:45;;;;;;;8.37;1.83;;;;;;;10.73;85.83;97979.88;4956494;28;20234;-55
2022/12/22 07:32:12;;;;;;;10.83;2.37;;;;;;;10.68;86.61;97976.94;4953135;28;20285;-57
2022/12/22 07:34:38;;;;;;;6.70;1.83;;;;;;;10.66;86.83;97981.53;4953707;28;20741;-59
2022/12/22 07:37:05;;;;;;;7.77;2.17;;;;;;;10.64;86.36;98001.75;4953863;28;20229;-58
2022/12/22 07:39:31;;;;;;;8.43;1.67;;;;;;;10.68;84.42;97978.75;4958649;28;20249;-58
2022/12/22 07:44:42;;;;;;;9.43;1.90;;;;;;;10.74;84.01;97954.59;4954144;28;20285;-57
2022/12/22 07:47:10;;;;;;;9.00;1.70;;;;;;;10.74;84.07;97970.25;4952125;28;20269;-59
2022/12/22 07:52:20;;;;;;;11.43;1.77;;;;;;;10.90;82.17;97967.59;4953658;28;20354;-57
2022/12/22 07:54:47;;;;;;;10.30;2.00;;;;;;;10.90;83.46;97969.38;4955836;28;20258;-57
2022/12/22 07:57:13;;;;;;;10.30;2.00;;;;;;;10.91;82.49;97971.00;4952669;28;20317;-57
2022/12/22 07:59:40;;;;;;;10.03;1.70;;;;;;;10.82;84.38;97991.13;4955289;28;20244;-58
2022/12/22 08:02:11;;;;;;;9.17;1.50;;;;;;;10.78;83.31;97992.44;4951902;28;20706;-57
2022/12/22 08:04:37;;;;;;;7.20;1.87;;;;;;;10.83;82.41;97991.91;4956739;28;20328;-57
2022/12/22 08:07:04;;;;;;;12.03;1.90;;;;;;;10.84;82.36;97990.94;4954561;28;20293;-58
2022/12/22 08:09:30;;;;;;;8.60;2.10;;;;;;;10.76;83.93;97987.38;4956463;28;20241;-57
2022/12/22 08:11:57;;;;;;;9.40;1.53;;;;;;;10.85;81.15;97967.28;4952949;28;20384;-57
2022/12/22 08:14:23;;;;;;;8.07;1.57;;;;;;;10.85;82.15;97948.19;4954971;28;20234;-57
2022/12/22 08:16:50;;;;;;;12.57;1.83;;;;;;;10.98;79.93;97958.09;4955683;28;20238;-58
2022/12/22 08:19:18;;;;;;;11.57;2.10;;;;;;;10.92;80.90;97972.63;4953500;28;20233;-57
2022/12/22 08:21:44;;;;;;;9.50;1.67;;;;;;;10.93;80.20;97980.31;4957970;28;20305;-57
2022/12/22 08:24:11;;;;;;;9.02;1.90;;;;;;;10.99;79.73;97985.84;4953326;28;20455;-56
2022/12/22 08:26:42;;;;;;;8.97;1.80;;;;;;;10.99;79.75;97970.19;4955382;28;20654;-58
2022/12/22 08:29:12;;;;;;;10.27;2.23;;;;;;;10.96;79.09;97962.69;4952826;28;20247;-57
2022/12/22 08:31:40;;;;;;;9.37;1.87;;;;;;;10.99;78.14;97984.03;4951691;28;20239;-61
2022/12/22 08:34:10;;;;;;;8.27;1.47;;;;;;;10.84;81.99;97988.31;4952066;28;20234;-57
2022/12/22 08:36:41;;;;;;;11.90;1.67;;;;;;;10.81;83.04;97992.09;4955354;28;20234;-57
2022/12/22 08:39:08;;;;;;;11.93;2.27;;;;;;;10.70;86.45;97995.88;4953397;28;20247;-57
2022/12/22 08:41:50;;;;;;;9.93;2.50;;;;;;;10.49;89.88;97996.41;4956287;28;20244;-57
2022/12/22 08:44:18;;;;;;;10.50;2.33;;;;;;;10.30;91.72;97979.31;4953082;28;20233;-56
2022/12/22 08:46:45;;;;;;;13.20;1.87;;;;;;;10.22;93.92;97997.56;4957098;28;20239;-56
2022/12/22 08:49:12;;;;;;;7.40;1.80;;;;;;;10.11;94.60;97999.53;4949494;28;20299;-57
2022/12/22 08:51:40;;;;;;;9.03;4.50;;;;;;;10.02;93.64;97996.09;4956129;28;20230;-58
2022/12/22 08:54:06;;;;;;;11.53;2.13;;;;;;;9.97;96.57;97995.78;4951602;28;20238;-58
2022/12/22 08:56:33;;;;;;;11.70;2.40;;;;;;;9.88;99.69;98000.16;4969668;28;20242;-56
2022/12/22 08:59:03;;;;;;;12.67;2.33;;;;;;;9.88;99.62;97984.50;4950927;28;20280;-57
2022/12/22 09:01:31;;;;;;;11.20;1.93;;;;;;;9.86;98.50;98009.13;4952959;28;20698;-57
2022/12/22 09:03:58;;;;;;;9.37;1.77;;;;;;;9.80;99.17;98013.19;4951859;28;20233;-57
2022/12/22 09:06:25;;;;;;;10.17;1.60;;;;;;;9.78;99.54;98019.53;4954716;28;20245;-56
2022/12/22 09:08:56;;;;;;;17.23;2.40;;;;;;;9.66;100.00;98032.88;4955120;28;20421;-57
2022/12/22 09:11:22;;;;;;;9.60;1.87;;;;;;;9.70;100.00;98031.59;4952956;28;20981;-57
2022/12/22 09:13:50;;;;;;;7.90;1.37;;;;;;;9.70;98.63;98030.75;4956999;28;20252;-56
2022/12/22 09:16:17;;;;;;;10.00;1.90;;;;;;;9.66;100.00;98024.22;4950474;28;20266;-57
2022/12/22 09:18:43;;;;;;;11.80;2.20;;;;;;;9.60;100.00;98036.13;4953401;28;21120;-57
2022/12/22 09:21:10;;;;;;;9.17;1.77;;;;;;;9.64;100.00;98053.06;4951851;28;20234;-56
2022/12/22 09:23:37;;;;;;;9.20;1.63;;;;;;;9.64;99.80;98045.25;4956127;28;20229;-56
2022/12/22 09:26:08;;;;;;;9.27;1.80;;;;;;;9.77;97.34;98057.81;4950071;28;20248;-57
2022/12/22 09:28:35;;;;;;;12.17;1.83;;;;;;;9.74;99.24;98064.16;4953205;28;20753;-57
2022/12/22 09:31:02;;;;;;;11.23;1.50;;;;;;;9.75;99.85;98081.44;4950792;28;20297;-57
2022/12/22 09:33:29;;;;;;;8.87;1.77;;;;;;;9.72;100.00;98073.94;4954859;28;20306;-57
2022/12/22 09:35:56;;;;;;;10.63;1.73;;;;;;;9.65;100.00;98085.13;4952335;28;20230;-57
2022/12/22 09:38:35;;;;;;;8.70;1.50;;;;;;;9.60;100.00;98070.78;4954211;28;20225;-56
2022/12/22 09:41:09;;;;;;;7.97;1.67;;;;;;;9.65;100.00;98096.41;4954347;28;20289;-57
2022/12/22 09:43:36;;;;;;;9.00;1.47;;;;;;;9.54;100.00;98076.63;4956514;28;20239;-57
2022/12/22 09:46:03;;;;;;;6.07;1.57;;;;;;;9.51;100.00;98076.97;4949904;28;20222;-57
2022/12/22 09:48:35;;;;;;;7.60;1.70;;;;;;;9.50;100.00;98066.69;4954633;28;20631;-57
2022/12/22 09:51:03;;;;;;;9.47;1.70;;;;;;;9.52;100.00;98081.22;4952387;28;20248;-57
2022/12/22 09:53:31;;;;;;;6.90;1.27;;;;;;;9.54;100.00;98113.09;4955080;28;20234;-55
2022/12/22 09:55:58;;;;;;;13.13;1.60;;;;;;;9.46;100.00;98089.66;4954711;28;20594;-56
2022/12/22 09:58:28;;;;;;;8.43;1.70;;;;;;;9.44;100.00;98084.59;4954576;28;20607;-58
2022/12/22 10:01:02;;;;;;;8.03;1.70;;;;;;;9.43;100.00;98087.38;4954632;28;20317;-57
2022/12/22 10:03:39;;;;;;;9.40;1.83;;;;;;;9.40;100.00;98109.31;4950767;28;20713;-58
2022/12/22 10:06:12;;;;;;;6.43;1.27;;;;;;;9.43;100.00;98122.03;4952663;28;20780;-58
2022/12/22 10:08:40;;;;;;;12.20;3.83;;;;;;;9.38;100.00;98126.09;4945355;28;20723;-57
2022/12/22 10:11:12;;;;;;;7.10;1.50;;;;;;;9.44;100.00;98122.88;4950032;28;20723;-58
2022/12/22 10:13:40;;;;;;;7.00;1.20;;;;;;;10.02;100.00;98155.16;4952989;28;20292;-55
2022/12/22 10:16:17;;;;;;;10.80;1.80;;;;;;;9.67;100.00;98150.94;4952269;28;20229;-59
2022/12/22 10:18:56;;;;;;;8.27;1.60;;;;;;;9.48;100.00;98165.88;4955850;28;20314;-59
2022/12/22 10:21:23;;;;;;;8.00;1.73;;;;;;;9.40;100.00;98164.03;4954230;28;20261;-61
2022/12/22 10:23:50;;;;;;;8.97;1.80;;;;;;;9.34;100.00;98175.06;4960615;28;20234;-60
2022/12/22 10:26:21;;;;;;;10.53;1.87;;;;;;;9.29;100.00;98152.09;4953028;28;20309;-56
2022/12/22 10:28:51;;;;;;;9.70;2.33;;;;;;;9.30;100.00;98165.91;4957999;28;20233;-55
2022/12/22 10:31:21;;;;;;;10.53;1.80;;;;;;;9.30;100.00;98158.94;4955679;28;20289;-58
2022/12/22 10:33:49;;;;;;;10.67;3.17;;;;;;;9.32;100.00;98158.75;4956180;28;20222;-57
2022/12/22 10:36:21;;;;;;;8.90;1.70;;;;;;;9.38;100.00;98147.72;4954256;28;20666;-58
2022/12/22 10:39:01;;;;;;;9.57;1.70;;;;;;;9.37;100.00;98155.72;4954650;28;20245;-56
2022/12/22 10:41:31;;;;;;;12.23;2.20;;;;;;;9.41;100.00;98144.81;4953441;28;20257;-57
2022/12/22 10:44:02;;;;;;;10.93;2.20;;;;;;;9.47;100.00;98158.19;4956994;28;20231;-57
2022/12/22 10:46:33;;;;;;;10.57;2.90;;;;;;;9.45;100.00;98148.75;4960779;28;20248;-57
2022/12/22 10:49:14;;;;;;;15.27;2.20;;;;;;;9.48;100.00;98137.22;4953551;28;20897;-57
2022/12/22 10:51:44;;;;;;;9.40;2.27;;;;;;;9.54;100.00;98125.34;4957455;28;20277;-57
2022/12/22 10:54:28;;;;;;;11.47;2.03;;;;;;;9.53;100.00;98150.59;4951056;28;20631;-57
2022/12/22 10:57:04;;;;;;;15.93;2.97;;;;;;;9.57;100.00;98135.44;4958683;28;20560;-57
2022/12/22 10:59:33;;;;;;;8.27;1.77;;;;;;;9.53;100.00;98152.38;4955086;28;20301;-57
2022/12/22 11:02:26;;;;;;;11.30;2.00;;;;;;;9.55;100.00;98153.81;4953641;28;20230;-56
2022/12/22 11:04:54;;;;;;;14.37;2.33;;;;;;;9.60;100.00;98141.16;4955002;28;20576;-57
2022/12/22 11:07:21;;;;;;;11.17;2.00;;;;;;;9.66;100.00;98154.53;4952469;28;20242;-56
2022/12/22 11:09:48;;;;;;;15.10;1.80;;;;;;;9.74;100.00;98144.13;4954273;28;20281;-57
2022/12/22 11:12:26;;;;;;;11.23;2.27;;;;;;;9.80;100.00;98156.53;4951999;28;20265;-57
2022/12/22 11:14:59;;;;;;;10.73;2.00;;;;;;;9.85;100.00;98150.88;4957794;28;20223;-57
2022/12/22 11:17:33;;;;;;;8.47;1.83;;;;;;;9.86;100.00;98163.72;4951700;28;20292;-56
2022/12/22 11:20:22;;;;;;;10.63;1.67;;;;;;;9.93;100.00;98147.47;4954813;28;20306;-56
2022/12/22 11:22:56;;;;;;;9.87;1.60;;;;;;;9.94;100.00;98144.72;4957864;28;20242;-58
2022/12/22 11:25:35;;;;;;;9.03;1.93;;;;;;;9.95;100.00;98148.13;4954960;28;20238;-56
2022/12/22 11:28:26;;;;;;;10.90;1.77;;;;;;;9.96;100.00;98160.19;4954114;28;20306;-55
2022/12/22 11:31:08;;;;;;;14.97;2.50;;;;;;;9.93;100.00;98160.50;4954890;28;20223;-55
2022/12/22 11:33:47;;;;;;;9.00;1.80;;;;;;;10.04;100.00;98152.38;4953627;28;20288;-55
2022/12/22 11:36:23;;;;;;;8.93;1.67;;;;;;;9.97;100.00;98151.38;4954706;28;20234;-56
2022/12/22 11:38:56;;;;;;;9.60;1.60;;;;;;;10.11;97.57;98153.38;4955506;28;20217;-55
2022/12/22 11:41:38;;;;;;;7.97;1.80;;;;;;;10.09;100.00;98159.72;4950713;28;20234;-57
2022/12/22 11:44:29;;;;;;;8.47;1.63;;;;;;;10.03;99.42;98135.09;4950713;28;20575;-57
2022/12/22 11:47:06;;;;;;;10.27;1.37;;;;;;;10.12;97.98;98143.75;4955649;28;20271;-57
2022/12/22 11:49:48;;;;;;;8.20;1.43;;;;;;;10.15;98.05;98162.53;4955103;28;20229;-57
2022/12/22 11:52:28;;;;;;;8.13;1.63;;;;;;;10.16;96.96;98156.31;4949560;28;20234;-57
2022/12/22 11:55:22;;;;;;;10.67;2.00;;;;;;;10.17;96.87;98150.13;4956704;28;20233;-57
2022/12/22 11:58:01;;;;;;;11.57;1.30;;;;;;;10.16;97.64;98165.94;4953234;28;20281;-57
2022/12/22 12:00:34;;;;;;;10.57;1.43;;;;;;;10.18;97.46;98158.75;4954424;28;20240;-56
2022/12/22 12:03:29;;;;;;;7.77;1.77;;;;;;;10.19;99.48;98170.81;4954603;28;20239;-56
2022/12/22 12:06:23;;;;;;;9.30;2.23;;;;;;;10.15;100.00;98169.50;4954774;28;20225;-56
2022/12/22 12:09:05;;;;;;;10.47;1.87;;;;;;;10.06;100.00;98176.50;4952107;28;20289;-57
2022/12/22 12:11:39;;;;;;;8.13;1.70;;;;;;;10.09;100.00;98154.50;4954323;28;20629;-57
2022/12/22 12:14:18;;;;;;;8.37;1.50;;;;;;;10.13;100.00;98155.81;4953078;28;20576;-59
2022/12/22 12:16:51;;;;;;;3.27;1.30;;;;;;;10.78;100.00;98175.19;4957893;28;20626;-56
2022/12/22 12:19:42;;;;;;;15.63;2.73;;;;;;;10.90;100.00;98181.72;4951693;28;20644;-63
2022/12/22 12:22:17;;;;;;;7.33;1.33;;;;;;;10.52;99.02;98183.16;4951448;28;20785;-58
2022/12/22 12:24:58;;;;;;;10.07;1.77;;;;;;;10.45;97.69;98193.41;4969887;28;20248;-58
2022/12/22 12:27:40;;;;;;;7.73;1.97;;;;;;;10.41;98.98;98207.75;4950893;28;20298;-61
2022/12/22 12:30:13;;;;;;;10.50;1.67;;;;;;;10.37;98.04;98198.59;4951672;28;20243;-62
2022/12/22 12:32:47;;;;;;;7.10;1.50;;;;;;;10.31;99.00;98194.84;4954609;28;20235;-61
2022/12/22 12:35:31;;;;;;;14.37;1.90;;;;;;;10.38;97.78;98188.00;4953327;28;20234;-62
2022/12/22 12:38:05;;;;;;;7.27;1.30;;;;;;;10.33;97.62;98172.00;4950708;28;20253;-62
2022/12/22 12:40:38;;;;;;;9.47;1.30;;;;;;;10.29;96.93;98199.41;4951619;28;20238;-63
2022/12/22 12:43:05;;;;;;;12.37;2.23;;;;;;;10.30;97.29;98204.44;4952689;28;20231;-62
2022/12/22 12:45:33;;;;;;;11.73;1.93;;;;;;;10.33;96.49;98198.91;4954749;28;20289;-62
2022/12/22 12:48:33;;;;;;;10.17;1.70;;;;;;;10.30;97.44;98203.63;4949435;28;20230;-62
2022/12/22 12:51:01;;;;;;;9.13;1.77;;;;;;;10.32;97.89;98212.94;4966429;28;20240;-62
2022/12/22 12:53:29;;;;;;;9.10;1.80;;;;;;;10.36;97.20;98208.22;4954220;28;20239;-62
2022/12/22 12:56:06;;;;;;;9.27;1.90;;;;;;;10.43;95.76;98216.25;4952591;28;20320;-62
2022/12/22 12:58:51;;;;;;;7.53;1.50;;;;;;;10.55;96.03;98222.00;4952901;28;20618;-62
2022/12/22 13:01:58;;;;;;;7.33;1.77;;;;;;;10.53;95.66;98223.94;4951550;28;20247;-63
2022/12/22 13:05:13;;;;;;;11.03;1.90;;;;;;;10.59;93.17;98220.69;4894444;29;20247;-62
2022/12/22 13:08:15;;;;;;;9.00;2.07;;;;;;;10.67;94.14;98218.06;4950497;28;20242;-62
2022/12/22 13:10:46;;;;;;;7.87;1.77;;;;;;;10.55;91.85;98225.41;4946347;28;20242;-62
2022/12/22 13:13:48;;;;;;;8.93;2.40;;;;;;;10.66;91.45;98244.34;4953940;28;20803;-62
2022/12/22 13:16:33;;;;;;;11.17;1.87;;;;;;;10.60;91.83;98236.19;4947824;28;20238;-62
2022/12/22 13:19:05;;;;;;;13.93;2.13;;;;;;;10.55;92.94;98241.06;4950594;28;20226;-62
2022/12/22 13:21:40;;;;;;;8.10;2.03;;;;;;;10.61;92.54;98242.19;4953536;28;20591;-59
2022/12/22 13:24:16;;;;;;;25.40;8.80;;;;;;;10.61;91.53;98242.19;4953783;28;20326;-61
2022/12/22 13:26:44;;;;;;;10.50;1.97;;;;;;;10.51;93.28;98241.56;4957322;28;20286;-59
2022/12/22 13:29:22;;;;;;;7.90;2.07;;;;;;;10.40;94.18;98248.69;4952165;28;20218;-59
2022/12/22 13:31:54;;;;;;;12.30;2.47;;;;;;;10.41;94.45;98236.47;4953239;28;20586;-59
2022/12/22 13:34:41;;;;;;;19.77;2.47;;;;;;;10.55;94.54;98237.66;4953243;28;20226;-55
2022/12/22 13:37:20;;;;;;;15.70;2.47;;;;;;;10.60;93.50;98232.78;4953456;28;20230;-62
2022/12/22 13:40:08;;;;;;;12.83;2.17;;;;;;;10.55;93.02;98227.22;4955295;28;20753;-60
2022/12/22 13:42:37;;;;;;;21.90;3.10;;;;;;;10.51;92.39;98231.13;4951809;28;20635;-60
2022/12/22 13:45:12;;;;;;;11.80;2.57;;;;;;;10.47;91.72;98218.38;4948948;28;20273;-61
2022/12/22 13:47:41;;;;;;;19.67;3.10;;;;;;;10.42;92.42;98217.22;4951274;28;20230;-59
2022/12/22 13:50:16;;;;;;;15.87;3.30;;;;;;;10.37;93.50;98235.94;4954788;28;20375;-59
2022/12/22 13:52:43;;;;;;;15.47;2.50;;;;;;;10.48;91.57;98229.63;4954548;28;20320;-59
2022/12/22 13:55:13;;;;;;;18.77;2.40;;;;;;;10.47;93.04;98231.44;4959094;28;20245;-59
2022/12/22 13:57:40;;;;;;;15.00;3.20;;;;;;;10.52;92.07;98227.53;4952622;28;20740;-60
2022/12/22 14:00:18;;;;;;;15.23;3.43;;;;;;;10.46;92.57;98232.41;4957959;28;20305;-60
2022/12/22 14:02:44;;;;;;;11.70;2.30;;;;;;;10.52;90.77;98238.78;4955689;28;20225;-60
2022/12/22 14:05:14;;;;;;;17.87;2.40;;;;;;;10.50;92.25;98227.69;4957753;28;20237;-60
2022/12/22 14:07:41;;;;;;;11.20;3.00;;;;;;;10.53;92.23;98250.03;4958867;28;20233;-60
2022/12/22 14:10:08;;;;;;;9.40;2.63;;;;;;;10.54;91.41;98236.81;4958203;28;20237;-61
2022/12/22 14:12:40;;;;;;;13.67;1.77;;;;;;;10.57;91.02;98241.72;4950910;28;20240;-62
2022/12/22 14:15:17;;;;;;;11.93;2.17;;;;;;;10.47;92.06;98241.03;4958931;28;20239;-62
2022/12/22 14:17:44;;;;;;;15.57;3.10;;;;;;;10.46;92.52;98255.06;4956501;28;20226;-56
2022/12/22 14:20:17;;;;;;;12.60;2.77;;;;;;;10.41;92.64;98262.56;4960131;28;20238;-58
2022/12/22 14:22:48;;;;;;;10.83;2.83;;;;;;;10.54;94.71;98251.69;4952912;28;20233;-59
2022/12/22 14:25:19;;;;;;;22.97;7.20;;;;;;;10.52;93.69;98259.66;4958732;28;20218;-60
2022/12/22 14:27:48;;;;;;;17.57;3.93;;;;;;;10.47;93.18;98269.75;4953614;28;20705;-58
2022/12/22 14:30:19;;;;;;;17.07;4.97;;;;;;;10.41;93.73;98267.78;4957846;28;20227;-59
2022/12/22 14:32:47;;;;;;;11.83;2.40;;;;;;;10.48;92.30;98258.34;4955209;28;20241;-59
2022/12/22 14:35:25;;;;;;;58.47;43.73;;;;;;;10.42;93.63;98257.19;4959370;28;20625;-64
2022/12/22 14:37:54;;;;;;;28.40;19.43;;;;;;;10.31;95.26;98260.06;4955096;28;20321;-63
2022/12/22 14:40:32;;;;;;;18.27;3.93;;;;;;;10.31;95.46;98253.03;4963832;28;20678;-60
2022/12/22 14:43:01;;;;;;;11.73;3.00;;;;;;;10.38;94.44;98273.28;4942913;28;20234;-60
2022/12/22 14:45:29;;;;;;;13.53;3.13;;;;;;;10.27;95.76;98259.53;4958398;28;20254;-60
2022/12/22 14:47:56;;;;;;;14.83;2.07;;;;;;;10.28;95.04;98242.09;4952494;28;20245;-60
2022/12/22 14:50:25;;;;;;;7.97;1.93;;;;;;;10.29;95.20;98248.97;4955326;28;20234;-60
2022/12/22 14:52:55;;;;;;;14.57;2.30;;;;;;;10.25;94.40;98247.66;4950216;28;20607;-61
2022/12/22 14:55:27;;;;;;;12.87;3.10;;;;;;;10.22;95.02;98250.56;4956934;28;20377;-60
2022/12/22 14:57:56;;;;;;;12.13;2.27;;;;;;;10.21;94.34;98252.34;4955628;28;20299;-61
2022/12/22 15:00:34;;;;;;;13.40;2.43;;;;;;;10.17;93.99;98251.03;4954110;28;20691;-61
2022/12/22 15:03:03;;;;;;;11.27;2.40;;;;;;;10.17;93.68;98244.03;4951881;28;20246;-63
2022/12/22 15:05:34;;;;;;;12.23;2.57;;;;;;;10.16;94.62;98265.03;4952446;28;20231;-61
2022/12/22 15:08:01;;;;;;;10.57;2.50;;;;;;;10.16;94.80;98252.81;4957006;28;20718;-60
2022/12/22 15:10:35;;;;;;;13.50;2.47;;;;;;;10.10;95.41;98258.66;4957957;28;20235;-61
2022/12/22 15:13:05;;;;;;;18.00;2.40;;;;;;;10.12;94.94;98248.91;4957571;28;20229;-60
2022/12/22 15:15:34;;;;;;;12.30;3.00;;;;;;;10.09;95.54;98256.19;4952716;28;20321;-60
2022/12/22 15:18:01;;;;;;;17.37;4.87;;;;;;;10.07;95.44;98258.97;4957040;28;20289;-60
2022/12/22 15:20:29;;;;;;;14.97;2.57;;;;;;;10.16;93.91;98228.53;4959372;28;20243;-60
2022/12/22 15:22:56;;;;;;;17.73;2.90;;;;;;;10.15;93.88;98266.00;4953260;28;20233;-60
2022/12/22 15:25:24;;;;;;;21.20;3.10;;;;;;;10.13;93.27;98262.75;4957681;28;20237;-60
2022/12/22 15:27:51;;;;;;;18.90;3.00;;;;;;;10.24;91.28;98244.19;4954219;28;20242;-61
2022/12/22 15:30:21;;;;;;;19.90;3.90;;;;;;;10.19;91.15;98254.28;4958095;28;20351;-60
2022/12/22 15:32:49;;;;;;;17.17;2.90;;;;;;;10.22;91.23;98255.78;4952579;28;20335;-59